createdAt,value
2023-05-10T00:00:00.247Z,99.99
2023-05-10T00:01:00.091Z,99.99
2023-05-10T00:02:00.159Z,99.99
2023-05-10T00:03:00.285Z,99.99
2023-05-10T00:04:00.170Z,99.99
2023-05-10T00:05:00.053Z,99.99
2023-05-10T00:06:00.026Z,99.99
2023-05-10T00:07:00.327Z,99.99
2023-05-10T00:08:00.041Z,99.99
2023-05-10T00:08:59.993Z,99.99
2023-05-10T00:10:00.003Z,99.99
2023-05-10T00:11:00.003Z,99.99
2023-05-10T00:11:59.969Z,99.99
2023-05-10T00:13:00.148Z,99.99
2023-05-10T00:14:00.000Z,99.99
2023-05-10T00:14:59.964Z,99.99
2023-05-10T00:15:59.964Z,99.99
2023-05-10T00:17:00.013Z,99.99
2023-05-10T00:17:59.968Z,99.99
2023-05-10T00:18:59.936Z,99.99
2023-05-10T00:19:59.899Z,99.99
2023-05-10T00:20:59.905Z,99.99
2023-05-10T00:22:00.196Z,99.99
2023-05-10T00:22:59.890Z,99.99
2023-05-10T00:23:59.863Z,99.99
2023-05-10T00:24:59.846Z,99.99
2023-05-10T00:25:59.825Z,99.99
2023-05-10T00:26:59.828Z,99.99
2023-05-10T00:27:59.792Z,99.99
2023-05-10T00:28:59.809Z,99.99
2023-05-10T00:29:59.816Z,99.99
2023-05-10T00:30:59.768Z,99.99
2023-05-10T00:31:59.838Z,99.99
2023-05-10T00:32:59.828Z,99.99
2023-05-10T00:33:59.728Z,99.99
2023-05-10T00:34:59.748Z,99.99
2023-05-10T00:35:59.741Z,99.99
2023-05-10T00:36:59.714Z,99.99
2023-05-10T00:37:59.688Z,99.99
2023-05-10T00:38:59.714Z,99.99
2023-05-10T00:39:59.683Z,99.99
2023-05-10T00:40:59.671Z,99.99
2023-05-10T00:41:59.651Z,99.99
2023-05-10T00:42:59.684Z,99.99
2023-05-10T00:43:59.673Z,99.99
2023-05-10T00:44:59.652Z,99.99
2023-05-10T00:45:59.641Z,99.99
2023-05-10T00:46:59.603Z,99.99
2023-05-10T00:47:59.631Z,99.99
2023-05-10T00:48:59.609Z,99.99
2023-05-10T00:49:59.584Z,99.99
2023-05-10T00:50:59.572Z,99.99
2023-05-10T00:51:59.532Z,99.99
2023-05-10T00:52:59.582Z,99.99
2023-05-10T00:53:59.531Z,99.99
2023-05-10T00:54:59.550Z,99.99
2023-05-10T00:55:59.519Z,99.99
2023-05-10T00:56:59.492Z,99.99
2023-05-10T00:57:59.472Z,99.99
2023-05-10T00:58:59.480Z,99.99
2023-05-10T00:59:59.501Z,99.99
2023-05-10T01:00:59.510Z,99.99
2023-05-10T01:01:59.433Z,99.99
2023-05-10T01:02:59.560Z,99.99
2023-05-10T01:03:59.427Z,99.99
2023-05-10T01:04:59.457Z,99.99
2023-05-10T01:05:59.418Z,99.99
2023-05-10T01:06:59.408Z,99.99
2023-05-10T01:07:59.416Z,99.99
2023-05-10T01:08:59.440Z,99.99
2023-05-10T01:09:59.357Z,99.99
2023-05-10T01:10:59.409Z,99.99
2023-05-10T01:11:59.378Z,99.99
2023-05-10T01:12:59.363Z,99.99
2023-05-10T01:13:59.336Z,99.99
2023-05-10T01:14:59.323Z,99.99
2023-05-10T01:15:59.373Z,99.99
2023-05-10T01:16:59.314Z,99.99
2023-05-10T01:17:59.376Z,99.99
2023-05-10T01:18:59.280Z,99.99
2023-05-10T01:19:59.275Z,99.99
2023-05-10T01:20:59.256Z,99.99
2023-05-10T01:21:59.238Z,99.99
2023-05-10T01:22:59.245Z,99.99
2023-05-10T01:23:59.242Z,99.99
2023-05-10T01:24:59.233Z,99.99
2023-05-10T01:25:59.221Z,99.99
2023-05-10T01:26:59.219Z,99.99
2023-05-10T01:27:59.191Z,99.99
2023-05-10T01:28:59.400Z,99.99
2023-05-10T01:30:14.226Z,99.99
2023-05-10T01:30:59.167Z,99.99
2023-05-10T01:31:59.146Z,99.99
2023-05-10T01:32:59.153Z,99.99
2023-05-10T01:33:59.145Z,99.99
2023-05-10T01:34:59.101Z,99.99
2023-05-10T01:35:59.100Z,99.99
2023-05-10T01:36:59.100Z,99.99
2023-05-10T01:37:59.070Z,99.99
2023-05-10T01:38:59.079Z,99.99
2023-05-10T01:39:59.069Z,99.99
2023-05-10T01:40:59.091Z,99.99
2023-05-10T01:41:59.077Z,99.99
2023-05-10T01:42:59.073Z,99.99
2023-05-10T01:43:59.009Z,99.99
2023-05-10T01:44:59.024Z,99.99
2023-05-10T01:45:58.969Z,99.99
2023-05-10T01:46:59.062Z,99.99
2023-05-10T01:47:58.982Z,99.99
2023-05-10T01:48:58.964Z,99.99
2023-05-10T01:49:59.119Z,99.99
2023-05-10T01:50:58.954Z,99.99
2023-05-10T01:51:58.898Z,99.99
2023-05-10T01:52:58.915Z,99.99
2023-05-10T01:53:58.920Z,99.99
2023-05-10T01:54:58.894Z,99.99
2023-05-10T01:55:58.870Z,99.99
2023-05-10T01:56:58.868Z,99.99
2023-05-10T01:57:58.848Z,99.99
2023-05-10T01:58:58.873Z,99.99
2023-05-10T01:59:58.863Z,99.99
2023-05-10T02:00:58.884Z,99.99
2023-05-10T02:01:58.857Z,99.99
2023-05-10T02:02:58.952Z,99.99
2023-05-10T02:03:58.801Z,99.99
2023-05-10T02:04:58.791Z,99.99
2023-05-10T02:05:58.775Z,99.99
2023-05-10T02:06:58.773Z,99.99
2023-05-10T02:07:59.019Z,99.99
2023-05-10T02:08:58.736Z,99.99
2023-05-10T02:09:58.749Z,99.99
2023-05-10T02:10:58.727Z,99.99
2023-05-10T02:11:58.709Z,99.99
2023-05-10T02:12:58.731Z,99.99
2023-05-10T02:13:58.683Z,99.99
2023-05-10T02:14:58.661Z,99.99
2023-05-10T02:15:58.700Z,99.99
2023-05-10T02:16:58.698Z,99.99
2023-05-10T02:17:58.637Z,99.99
2023-05-10T02:18:58.658Z,99.99
2023-05-10T02:19:58.634Z,99.99
2023-05-10T02:20:58.616Z,99.99
2023-05-10T02:21:58.614Z,99.99
2023-05-10T02:22:58.581Z,99.99
2023-05-10T02:23:58.591Z,99.99
2023-05-10T02:24:58.562Z,99.99
2023-05-10T02:25:58.575Z,99.99
2023-05-10T02:26:58.553Z,99.99
2023-05-10T02:27:58.540Z,99.99
2023-05-10T02:28:58.718Z,99.99
2023-05-10T02:29:58.516Z,99.99
2023-05-10T02:30:58.547Z,99.99
2023-05-10T02:31:58.526Z,99.99
2023-05-10T02:32:58.557Z,99.99
2023-05-10T02:33:58.476Z,99.99
2023-05-10T02:34:58.523Z,99.99
2023-05-10T02:35:58.455Z,99.99
2023-05-10T02:36:58.466Z,99.99
2023-05-10T02:37:58.420Z,99.99
2023-05-10T02:38:58.417Z,99.99
2023-05-10T02:39:58.432Z,99.99
2023-05-10T02:40:58.480Z,99.99
2023-05-10T02:41:58.377Z,99.99
2023-05-10T02:42:58.405Z,99.99
2023-05-10T02:43:58.357Z,99.99
2023-05-10T02:44:58.368Z,99.99
2023-05-10T02:45:58.391Z,99.99
2023-05-10T02:46:58.368Z,99.99
2023-05-10T02:47:58.439Z,99.99
2023-05-10T02:48:58.343Z,99.99
2023-05-10T02:49:58.309Z,99.99
2023-05-10T02:50:58.306Z,99.99
2023-05-10T02:51:58.282Z,99.99
2023-05-10T02:52:58.274Z,99.99
2023-05-10T02:53:58.262Z,99.99
2023-05-10T02:54:58.257Z,99.99
2023-05-10T02:56:00.866Z,99.99
2023-05-10T02:56:58.272Z,99.99
2023-05-10T02:57:58.206Z,99.99
2023-05-10T02:58:58.220Z,99.99
2023-05-10T02:59:58.208Z,99.99
2023-05-10T03:00:58.190Z,99.99
2023-05-10T03:01:58.197Z,99.99
2023-05-10T03:02:58.316Z,99.99
2023-05-10T03:03:58.182Z,99.99
2023-05-10T03:04:58.257Z,99.99
2023-05-10T03:05:58.157Z,99.99
2023-05-10T03:06:58.141Z,99.99
2023-05-10T03:07:58.167Z,99.99
2023-05-10T03:08:58.129Z,99.99
2023-05-10T03:09:58.111Z,99.99
2023-05-10T03:10:58.107Z,99.99
2023-05-10T03:11:58.079Z,99.99
2023-05-10T03:12:58.086Z,99.99
2023-05-10T03:13:58.053Z,99.99
2023-05-10T03:14:58.074Z,99.99
2023-05-10T03:15:59.748Z,99.99
2023-05-10T03:16:58.041Z,99.99
2023-05-10T03:17:58.026Z,99.99
2023-05-10T03:18:58.050Z,99.99
2023-05-10T03:19:57.986Z,99.99
2023-05-10T03:20:57.989Z,99.99
2023-05-10T03:21:57.983Z,99.99
2023-05-10T03:22:58.257Z,99.99
2023-05-10T03:23:57.996Z,99.99
2023-05-10T03:24:57.971Z,99.99
2023-05-10T03:25:57.935Z,99.99
2023-05-10T03:26:58.728Z,99.99
2023-05-10T03:27:57.927Z,99.99
2023-05-10T03:28:57.887Z,99.99
2023-05-10T03:29:57.914Z,99.99
2023-05-10T03:30:57.925Z,99.99
2023-05-10T03:31:57.848Z,99.99
2023-05-10T03:32:57.904Z,99.99
2023-05-10T03:33:57.865Z,99.99
2023-05-10T03:34:57.839Z,99.99
2023-05-10T03:35:57.870Z,99.99
2023-05-10T03:36:57.818Z,99.99
2023-05-10T03:37:57.810Z,99.99
2023-05-10T03:38:57.875Z,99.99
2023-05-10T03:39:57.811Z,99.99
2023-05-10T03:40:57.830Z,99.99
2023-05-10T03:41:57.757Z,99.99
2023-05-10T03:42:57.763Z,99.99
2023-05-10T03:43:57.728Z,99.99
2023-05-10T03:44:57.744Z,99.99
2023-05-10T03:45:57.728Z,99.99
2023-05-10T03:46:57.796Z,99.99
2023-05-10T03:47:57.730Z,99.99
2023-05-10T03:48:57.675Z,99.99
2023-05-10T03:49:57.690Z,99.99
2023-05-10T03:50:57.856Z,99.99
2023-05-10T03:51:57.688Z,99.99
2023-05-10T03:52:57.670Z,99.99
2023-05-10T03:53:57.625Z,99.99
2023-05-10T03:54:57.772Z,99.99
2023-05-10T03:55:57.624Z,99.99
2023-05-10T03:56:57.616Z,99.99
2023-05-10T03:57:57.635Z,99.99
2023-05-10T03:58:58.285Z,99.99
2023-05-10T03:59:57.566Z,99.99
2023-05-10T04:00:57.546Z,99.99
2023-05-10T04:01:57.605Z,99.99
2023-05-10T04:02:58.305Z,99.99
2023-05-10T04:03:57.705Z,99.99
2023-05-10T04:04:57.568Z,99.99
2023-05-10T04:05:57.557Z,99.99
2023-05-10T04:06:59.275Z,99.99
2023-05-10T04:07:57.497Z,99.99
2023-05-10T04:08:57.472Z,99.99
2023-05-10T04:09:57.508Z,99.99
2023-05-10T04:10:57.440Z,99.99
2023-05-10T04:11:57.427Z,99.99
2023-05-10T04:12:57.459Z,99.99
2023-05-10T04:13:57.472Z,99.99
2023-05-10T04:14:57.420Z,99.99
2023-05-10T04:15:57.408Z,99.99
2023-05-10T04:16:57.482Z,99.99
2023-05-10T04:17:57.444Z,99.99
2023-05-10T04:18:57.369Z,99.99
2023-05-10T04:19:57.382Z,99.99
2023-05-10T04:20:57.370Z,99.99
2023-05-10T04:21:57.357Z,99.99
2023-05-10T04:22:57.359Z,99.99
2023-05-10T04:23:57.314Z,99.99
2023-05-10T04:24:57.320Z,99.99
2023-05-10T04:25:57.298Z,99.99
2023-05-10T04:26:57.941Z,99.99
2023-05-10T04:27:57.274Z,99.99
2023-05-10T04:28:57.314Z,99.99
2023-05-10T04:29:57.282Z,99.99
2023-05-10T04:30:57.307Z,99.99
2023-05-10T04:31:57.242Z,99.99
2023-05-10T04:32:57.269Z,99.99
2023-05-10T04:33:57.208Z,99.99
2023-05-10T04:34:57.206Z,99.99
2023-05-10T04:35:57.188Z,99.99
2023-05-10T04:36:57.166Z,99.99
2023-05-10T04:37:57.187Z,99.99
2023-05-10T04:38:57.144Z,99.99
2023-05-10T04:39:57.171Z,99.99
2023-05-10T04:40:57.121Z,99.99
2023-05-10T04:41:57.138Z,99.99
2023-05-10T04:42:57.112Z,99.99
2023-05-10T04:43:57.133Z,99.99
2023-05-10T04:44:57.105Z,99.99
2023-05-10T04:45:57.085Z,99.99
2023-05-10T04:46:57.065Z,99.99
2023-05-10T04:47:57.080Z,99.99
2023-05-10T04:48:57.176Z,99.99
2023-05-10T04:49:57.032Z,99.99
2023-05-10T04:50:57.038Z,99.99
2023-05-10T04:51:57.004Z,99.99
2023-05-10T04:52:57.000Z,99.99
2023-05-10T04:54:05.211Z,99.99
2023-05-10T04:54:56.984Z,99.99
2023-05-10T04:55:57.010Z,99.99
2023-05-10T04:56:56.995Z,99.99
2023-05-10T04:57:57.038Z,99.99
2023-05-10T04:58:56.942Z,99.99
2023-05-10T04:59:56.935Z,99.99
2023-05-10T05:00:56.946Z,99.99
2023-05-10T05:01:56.987Z,99.99
2023-05-10T05:02:56.972Z,99.99
2023-05-10T05:03:57.069Z,99.99
2023-05-10T05:04:56.879Z,99.99
2023-05-10T05:05:56.898Z,99.99
2023-05-10T05:06:56.859Z,99.99
2023-05-10T05:07:56.867Z,99.99
2023-05-10T05:08:56.837Z,99.99
2023-05-10T05:09:56.835Z,99.99
2023-05-10T05:10:56.869Z,99.99
2023-05-10T05:11:56.807Z,99.99
2023-05-10T05:12:56.816Z,99.99
2023-05-10T05:13:56.792Z,99.99
2023-05-10T05:14:56.820Z,99.99
2023-05-10T05:15:56.815Z,99.99
2023-05-10T05:16:56.775Z,99.99
2023-05-10T05:17:56.771Z,99.99
2023-05-10T05:18:56.731Z,99.99
2023-05-10T05:19:56.816Z,99.99
2023-05-10T05:20:56.738Z,99.99
2023-05-10T05:21:56.715Z,99.99
2023-05-10T05:22:56.679Z,99.99
2023-05-10T05:23:56.735Z,99.99
2023-05-10T05:24:56.653Z,99.99
2023-05-10T05:25:56.658Z,99.99
2023-05-10T05:26:56.646Z,99.99
2023-05-10T05:27:56.623Z,99.99
2023-05-10T05:28:56.613Z,99.99
2023-05-10T05:29:56.623Z,99.99
2023-05-10T05:30:56.702Z,99.99
2023-05-10T05:31:56.636Z,99.99
2023-05-10T05:32:56.654Z,99.99
2023-05-10T05:33:56.600Z,99.99
2023-05-10T05:34:56.560Z,99.99
2023-05-10T05:35:56.561Z,99.99
2023-05-10T05:36:56.537Z,99.99
2023-05-10T05:37:56.586Z,99.99
2023-05-10T05:38:56.563Z,99.99
2023-05-10T05:39:56.510Z,99.99
2023-05-10T05:40:56.486Z,99.99
2023-05-10T05:41:56.513Z,99.99
2023-05-10T05:42:56.505Z,99.99
2023-05-10T05:43:56.464Z,99.99
2023-05-10T05:44:56.461Z,99.99
2023-05-10T05:45:56.498Z,99.99
2023-05-10T05:46:56.431Z,99.99
2023-05-10T05:47:56.450Z,99.99
2023-05-10T05:48:56.435Z,99.99
2023-05-10T05:49:56.411Z,99.99
2023-05-10T05:50:56.376Z,99.99
2023-05-10T05:51:56.387Z,99.99
2023-05-10T05:52:56.380Z,99.99
2023-05-10T05:53:56.364Z,99.99
2023-05-10T05:54:56.340Z,99.99
2023-05-10T05:55:56.338Z,99.99
2023-05-10T05:56:56.326Z,99.99
2023-05-10T05:57:56.369Z,99.99
2023-05-10T05:58:56.316Z,99.99
2023-05-10T05:59:56.366Z,99.99
2023-05-10T06:00:56.329Z,99.97
2023-05-10T06:01:56.300Z,99.66
2023-05-10T06:02:56.329Z,99.46
2023-05-10T06:03:56.362Z,99.56
2023-05-10T06:04:56.337Z,99.66
2023-05-10T06:05:56.255Z,99.66
2023-05-10T06:06:56.257Z,99.46
2023-05-10T06:07:56.217Z,99.77
2023-05-10T06:08:56.218Z,99.16
2023-05-10T06:09:56.182Z,99.56
2023-05-10T06:10:56.190Z,99.56
2023-05-10T06:11:56.755Z,99.26
2023-05-10T06:12:56.206Z,99.36
2023-05-10T06:13:56.158Z,99.56
2023-05-10T06:14:56.147Z,99.11
2023-05-10T06:15:56.148Z,99.05
2023-05-10T06:16:56.146Z,99.56
2023-05-10T06:17:56.166Z,98.80
2023-05-10T06:18:56.096Z,98.75
2023-05-10T06:19:56.092Z,99.16
2023-05-10T06:20:56.115Z,98.85
2023-05-10T06:21:56.074Z,99.41
2023-05-10T06:22:56.102Z,99.01
2023-05-10T06:23:56.119Z,99.31
2023-05-10T06:24:56.036Z,99.52
2023-05-10T06:25:56.030Z,99.21
2023-05-10T06:26:56.030Z,98.91
2023-05-10T06:27:56.081Z,97.99
2023-05-10T06:28:56.009Z,98.50
2023-05-10T06:30:01.959Z,98.50
2023-05-10T06:30:55.975Z,98.39
2023-05-10T06:31:56.100Z,98.80
2023-05-10T06:32:55.986Z,99.31
2023-05-10T06:33:56.852Z,98.96
2023-05-10T06:34:55.932Z,98.55
2023-05-10T06:35:55.930Z,98.86
2023-05-10T06:36:55.912Z,98.55
2023-05-10T06:37:55.921Z,99.06
2023-05-10T06:38:55.890Z,99.21
2023-05-10T06:39:55.876Z,99.11
2023-05-10T06:40:55.906Z,98.86
2023-05-10T06:41:55.874Z,99.37
2023-05-10T06:42:55.855Z,98.96
2023-05-10T06:43:55.842Z,99.16
2023-05-10T06:44:55.829Z,99.16
2023-05-10T06:45:55.836Z,99.32
2023-05-10T06:46:55.799Z,98.50
2023-05-10T06:47:55.829Z,98.05
2023-05-10T06:48:55.821Z,98.45
2023-05-10T06:49:55.802Z,98.41
2023-05-10T06:50:55.797Z,98.41
2023-05-10T06:51:55.797Z,98.20
2023-05-10T06:52:55.751Z,97.80
2023-05-10T06:53:55.732Z,97.19
2023-05-10T06:54:55.735Z,97.08
2023-05-10T06:55:55.734Z,96.88
2023-05-10T06:56:55.733Z,97.80
2023-05-10T06:57:55.682Z,97.29
2023-05-10T06:58:55.718Z,97.08
2023-05-10T06:59:55.712Z,96.98
2023-05-10T07:00:55.690Z,96.88
2023-05-10T07:01:55.712Z,96.78
2023-05-10T07:02:55.703Z,96.47
2023-05-10T07:03:55.639Z,96.07
2023-05-10T07:04:55.673Z,96.58
2023-05-10T07:05:55.629Z,96.47
2023-05-10T07:06:55.616Z,96.27
2023-05-10T07:07:55.574Z,96.17
2023-05-10T07:08:55.584Z,96.23
2023-05-10T07:09:55.570Z,96.53
2023-05-10T07:10:55.541Z,97.19
2023-05-10T07:11:55.578Z,97.14
2023-05-10T07:12:55.613Z,96.83
2023-05-10T07:13:55.556Z,96.83
2023-05-10T07:14:55.541Z,96.53
2023-05-10T07:15:55.566Z,96.43
2023-05-10T07:16:55.560Z,96.53
2023-05-10T07:17:55.594Z,96.63
2023-05-10T07:18:55.470Z,97.04
2023-05-10T07:19:55.478Z,95.82
2023-05-10T07:20:55.499Z,96.02
2023-05-10T07:21:55.451Z,96.02
2023-05-10T07:22:55.706Z,95.72
2023-05-10T07:23:55.421Z,95.72
2023-05-10T07:24:55.415Z,95.92
2023-05-10T07:25:55.385Z,95.62
2023-05-10T07:26:55.376Z,94.70
2023-05-10T07:27:55.381Z,95.01
2023-05-10T07:28:55.368Z,94.35
2023-05-10T07:29:55.375Z,95.17
2023-05-10T07:30:56.299Z,94.45
2023-05-10T07:31:57.945Z,94.66
2023-05-10T07:32:55.353Z,94.31
2023-05-10T07:33:55.341Z,94.41
2023-05-10T07:34:55.328Z,94.00
2023-05-10T07:35:55.329Z,92.99
2023-05-10T07:36:55.342Z,93.29
2023-05-10T07:37:55.343Z,92.99
2023-05-10T07:38:55.273Z,93.29
2023-05-10T07:39:55.349Z,93.33
2023-05-10T07:40:55.237Z,93.70
2023-05-10T07:41:55.285Z,93.49
2023-05-10T07:42:55.194Z,93.40
2023-05-10T07:43:55.195Z,92.48
2023-05-10T07:44:55.321Z,92.38
2023-05-10T07:45:56.408Z,92.68
2023-05-10T07:46:55.164Z,92.89
2023-05-10T07:47:55.216Z,92.13
2023-05-10T07:48:55.161Z,91.02
2023-05-10T07:49:55.175Z,90.92
2023-05-10T07:50:55.768Z,90.36
2023-05-10T07:51:55.104Z,90.16
2023-05-10T07:52:55.285Z,89.96
2023-05-10T07:53:55.108Z,90.81
2023-05-10T07:54:55.408Z,91.22
2023-05-10T07:55:55.072Z,91.63
2023-05-10T07:56:55.085Z,92.33
2023-05-10T07:57:55.062Z,92.38
2023-05-10T07:58:55.094Z,92.89
2023-05-10T07:59:55.045Z,92.94
2023-05-10T08:00:55.095Z,91.93
2023-05-10T08:01:55.062Z,92.33
2023-05-10T08:02:55.119Z,92.13
2023-05-10T08:03:55.081Z,91.22
2023-05-10T08:04:54.980Z,91.42
2023-05-10T08:05:54.982Z,92.03
2023-05-10T08:06:54.993Z,91.93
2023-05-10T08:07:54.938Z,91.93
2023-05-10T08:08:54.936Z,91.42
2023-05-10T08:09:54.914Z,91.42
2023-05-10T08:10:54.916Z,91.63
2023-05-10T08:11:54.931Z,91.93
2023-05-10T08:12:54.909Z,91.52
2023-05-10T08:13:54.866Z,91.22
2023-05-10T08:14:54.935Z,90.86
2023-05-10T08:15:54.944Z,91.77
2023-05-10T08:16:54.865Z,92.28
2023-05-10T08:17:54.890Z,92.52
2023-05-10T08:18:54.865Z,92.83
2023-05-10T08:19:54.811Z,93.33
2023-05-10T08:20:54.814Z,92.93
2023-05-10T08:21:54.823Z,92.83
2023-05-10T08:22:54.838Z,93.13
2023-05-10T08:23:54.781Z,93.44
2023-05-10T08:24:54.773Z,93.64
2023-05-10T08:25:54.744Z,94.45
2023-05-10T08:26:54.789Z,94.35
2023-05-10T08:27:54.768Z,94.70
2023-05-10T08:28:54.754Z,95.62
2023-05-10T08:29:54.906Z,96.43
2023-05-10T08:30:54.789Z,96.47
2023-05-10T08:31:54.716Z,96.98
2023-05-10T08:32:54.795Z,97.29
2023-05-10T08:33:54.702Z,97.69
2023-05-10T08:34:54.664Z,97.80
2023-05-10T08:35:54.686Z,97.96
2023-05-10T08:36:54.650Z,97.89
2023-05-10T08:37:54.639Z,98.41
2023-05-10T08:38:54.724Z,98.61
2023-05-10T08:39:54.680Z,98.56
2023-05-10T08:40:54.632Z,97.49
2023-05-10T08:41:54.598Z,97.60
2023-05-10T08:42:54.574Z,98.05
2023-05-10T08:43:54.584Z,98.26
2023-05-10T08:44:54.582Z,97.85
2023-05-10T08:45:54.592Z,97.75
2023-05-10T08:46:54.747Z,97.24
2023-05-10T08:47:54.586Z,97.14
2023-05-10T08:48:54.551Z,97.60
2023-05-10T08:49:54.500Z,97.30
2023-05-10T08:50:54.548Z,96.99
2023-05-10T08:51:54.482Z,95.98
2023-05-10T08:52:54.470Z,96.08
2023-05-10T08:53:54.476Z,96.14
2023-05-10T08:54:54.498Z,95.63
2023-05-10T08:55:54.432Z,95.83
2023-05-10T08:56:54.424Z,96.34
2023-05-10T08:57:54.433Z,96.34
2023-05-10T08:58:54.419Z,96.54
2023-05-10T08:59:54.424Z,96.30
2023-05-10T09:00:54.517Z,95.07
2023-05-10T09:01:54.396Z,95.42
2023-05-10T09:02:54.385Z,95.38
2023-05-10T09:03:54.449Z,94.37
2023-05-10T09:04:54.460Z,94.26
2023-05-10T09:05:54.327Z,93.96
2023-05-10T09:06:54.370Z,93.41
2023-05-10T09:07:54.353Z,93.81
2023-05-10T09:08:54.373Z,93.87
2023-05-10T09:09:54.302Z,93.73
2023-05-10T09:10:54.289Z,92.61
2023-05-10T09:11:54.287Z,90.89
2023-05-10T09:12:54.313Z,91.09
2023-05-10T09:13:54.307Z,90.79
2023-05-10T09:14:54.242Z,91.30
2023-05-10T09:15:54.239Z,90.75
2023-05-10T09:16:54.268Z,88.92
2023-05-10T09:17:54.415Z,87.71
2023-05-10T09:18:54.318Z,87.66
2023-05-10T09:19:54.199Z,88.17
2023-05-10T09:20:54.224Z,87.32
2023-05-10T09:21:54.500Z,87.52
2023-05-10T09:22:54.234Z,85.36
2023-05-10T09:23:54.331Z,84.14
2023-05-10T09:24:54.185Z,82.39
2023-05-10T09:25:54.140Z,82.45
2023-05-10T09:26:54.315Z,80.32
2023-05-10T09:27:54.123Z,80.53
2023-05-10T09:28:54.117Z,81.71
2023-05-10T09:29:54.114Z,83.03
2023-05-10T09:30:54.169Z,82.50
2023-05-10T09:31:54.137Z,82.75
2023-05-10T09:32:54.076Z,83.86
2023-05-10T09:33:54.066Z,83.96
2023-05-10T09:34:54.071Z,84.81
2023-05-10T09:35:54.055Z,85.62
2023-05-10T09:36:54.053Z,85.31
2023-05-10T09:37:54.047Z,86.27
2023-05-10T09:38:54.026Z,85.46
2023-05-10T09:39:54.018Z,86.27
2023-05-10T09:40:54.003Z,87.02
2023-05-10T09:41:53.965Z,87.63
2023-05-10T09:42:54.018Z,88.23
2023-05-10T09:43:53.948Z,88.84
2023-05-10T09:44:53.930Z,89.04
2023-05-10T09:45:53.942Z,89.04
2023-05-10T09:46:53.930Z,88.95
2023-05-10T09:47:54.012Z,89.04
2023-05-10T09:48:53.949Z,89.19
2023-05-10T09:49:53.892Z,89.80
2023-05-10T09:50:53.868Z,89.39
2023-05-10T09:51:53.867Z,89.50
2023-05-10T09:52:54.125Z,88.78
2023-05-10T09:53:53.861Z,88.95
2023-05-10T09:54:53.822Z,89.45
2023-05-10T09:55:53.914Z,89.35
2023-05-10T09:56:53.896Z,89.65
2023-05-10T09:57:54.317Z,89.86
2023-05-10T09:58:53.829Z,89.76
2023-05-10T09:59:53.813Z,89.35
2023-05-10T10:00:53.814Z,88.84
2023-05-10T10:01:53.801Z,88.84
2023-05-10T10:02:53.869Z,88.75
2023-05-10T10:03:53.741Z,88.64
2023-05-10T10:04:53.759Z,89.15
2023-05-10T10:05:53.708Z,88.38
2023-05-10T10:06:53.753Z,88.38
2023-05-10T10:07:53.706Z,88.58
2023-05-10T10:08:55.656Z,88.95
2023-05-10T10:09:53.671Z,88.34
2023-05-10T10:10:54.312Z,87.63
2023-05-10T10:11:53.659Z,88.03
2023-05-10T10:12:53.645Z,88.23
2023-05-10T10:13:53.664Z,86.71
2023-05-10T10:14:53.629Z,86.10
2023-05-10T10:15:53.683Z,86.61
2023-05-10T10:17:06.738Z,86.00
2023-05-10T10:17:53.645Z,86.10
2023-05-10T10:18:53.644Z,85.80
2023-05-10T10:19:53.609Z,86.27
2023-05-10T10:20:53.605Z,86.16
2023-05-10T10:21:53.548Z,85.76
2023-05-10T10:22:53.557Z,85.36
2023-05-10T10:23:53.536Z,85.25
2023-05-10T10:24:53.538Z,84.95
2023-05-10T10:25:53.507Z,84.70
2023-05-10T10:26:53.498Z,84.81
2023-05-10T10:27:53.552Z,83.69
2023-05-10T10:28:53.493Z,83.65
2023-05-10T10:29:53.479Z,83.35
2023-05-10T10:30:53.460Z,82.64
2023-05-10T10:31:53.600Z,82.24
2023-05-10T10:32:53.475Z,82.03
2023-05-10T10:33:53.449Z,82.60
2023-05-10T10:34:53.409Z,82.60
2023-05-10T10:35:53.410Z,81.69
2023-05-10T10:36:53.424Z,82.10
2023-05-10T10:37:53.369Z,81.69
2023-05-10T10:38:53.366Z,79.67
2023-05-10T10:39:53.345Z,80.78
2023-05-10T10:40:53.495Z,80.68
2023-05-10T10:41:53.400Z,80.88
2023-05-10T10:42:53.329Z,79.36
2023-05-10T10:43:53.324Z,79.87
2023-05-10T10:44:53.299Z,79.36
2023-05-10T10:45:53.293Z,79.77
2023-05-10T10:46:53.312Z,79.87
2023-05-10T10:47:53.285Z,79.77
2023-05-10T10:48:53.280Z,76.63
2023-05-10T10:49:53.258Z,77.54
2023-05-10T10:50:53.255Z,76.53
2023-05-10T10:51:53.260Z,75.92
2023-05-10T10:52:53.256Z,76.23
2023-05-10T10:53:53.261Z,76.53
2023-05-10T10:54:53.253Z,76.23
2023-05-10T10:55:53.224Z,76.32
2023-05-10T10:56:53.180Z,76.63
2023-05-10T10:57:53.177Z,76.53
2023-05-10T10:58:53.189Z,77.58
2023-05-10T10:59:53.139Z,77.37
2023-05-10T11:00:53.210Z,78.42
2023-05-10T11:01:53.225Z,77.41
2023-05-10T11:02:53.138Z,77.92
2023-05-10T11:03:53.177Z,78.22
2023-05-10T11:04:53.102Z,78.53
2023-05-10T11:05:53.107Z,78.73
2023-05-10T11:06:53.085Z,78.26
2023-05-10T11:07:53.067Z,79.58
2023-05-10T11:08:53.095Z,79.58
2023-05-10T11:09:53.123Z,79.47
2023-05-10T11:10:53.067Z,79.88
2023-05-10T11:11:53.026Z,79.41
2023-05-10T11:12:53.032Z,79.82
2023-05-10T11:13:53.001Z,80.49
2023-05-10T11:14:52.986Z,79.78
2023-05-10T11:15:53.001Z,80.22
2023-05-10T11:16:53.084Z,80.43
2023-05-10T11:17:53.050Z,80.39
2023-05-10T11:18:52.980Z,79.58
2023-05-10T11:19:52.973Z,80.08
2023-05-10T11:20:53.000Z,79.98
2023-05-10T11:21:52.967Z,79.44
2023-05-10T11:22:52.940Z,79.54
2023-05-10T11:23:52.953Z,79.44
2023-05-10T11:24:52.887Z,79.85
2023-05-10T11:25:52.874Z,78.73
2023-05-10T11:26:52.897Z,78.79
2023-05-10T11:27:52.892Z,77.75
2023-05-10T11:28:52.868Z,78.25
2023-05-10T11:29:52.886Z,77.91
2023-05-10T11:30:52.888Z,76.56
2023-05-10T11:31:52.808Z,76.76
2023-05-10T11:32:53.401Z,76.52
2023-05-10T11:33:52.787Z,75.27
2023-05-10T11:34:52.811Z,74.77
2023-05-10T11:35:53.336Z,74.73
2023-05-10T11:36:52.815Z,73.82
2023-05-10T11:37:52.740Z,73.15
2023-05-10T11:38:52.762Z,72.21
2023-05-10T11:39:52.716Z,71.37
2023-05-10T11:40:52.793Z,71.17
2023-05-10T11:41:52.813Z,70.46
2023-05-10T11:42:52.712Z,70.36
2023-05-10T11:43:52.714Z,69.45
2023-05-10T11:44:52.687Z,69.75
2023-05-10T11:45:52.694Z,69.85
2023-05-10T11:46:52.720Z,70.12
2023-05-10T11:47:52.694Z,68.30
2023-05-10T11:48:52.636Z,68.17
2023-05-10T11:49:52.625Z,67.27
2023-05-10T11:50:52.623Z,66.22
2023-05-10T11:51:52.614Z,65.29
2023-05-10T11:52:52.603Z,65.49
2023-05-10T11:53:52.599Z,66.33
2023-05-10T11:54:52.576Z,66.50
2023-05-10T11:55:52.574Z,66.30
2023-05-10T11:56:52.561Z,66.80
2023-05-10T11:57:52.552Z,65.69
2023-05-10T11:58:52.527Z,66.56
2023-05-10T11:59:52.535Z,65.09
2023-05-10T12:00:52.491Z,64.31
2023-05-10T12:01:52.510Z,65.42
2023-05-10T12:02:52.550Z,64.58
2023-05-10T12:03:52.594Z,64.78
2023-05-10T12:04:52.519Z,64.69
2023-05-10T12:05:52.472Z,64.72
2023-05-10T12:06:52.440Z,64.31
2023-05-10T12:07:52.435Z,64.21
2023-05-10T12:08:52.423Z,65.12
2023-05-10T12:09:52.404Z,64.61
2023-05-10T12:10:52.413Z,64.92
2023-05-10T12:11:52.415Z,65.05
2023-05-10T12:12:52.380Z,65.55
2023-05-10T12:13:52.371Z,66.08
2023-05-10T12:14:52.429Z,65.28
2023-05-10T12:15:52.370Z,66.42
2023-05-10T12:16:52.798Z,66.82
2023-05-10T12:17:52.358Z,67.23
2023-05-10T12:18:52.380Z,67.93
2023-05-10T12:19:52.298Z,67.63
2023-05-10T12:20:52.280Z,68.17
2023-05-10T12:21:52.331Z,68.84
2023-05-10T12:22:52.267Z,68.13
2023-05-10T12:23:52.297Z,67.53
2023-05-10T12:24:52.255Z,67.43
2023-05-10T12:25:52.275Z,67.70
2023-05-10T12:26:52.252Z,67.70
2023-05-10T12:27:52.226Z,66.99
2023-05-10T12:28:52.217Z,66.86
2023-05-10T12:29:52.195Z,66.13
2023-05-10T12:30:52.174Z,65.89
2023-05-10T12:31:52.221Z,64.65
2023-05-10T12:32:52.292Z,64.05
2023-05-10T12:33:52.150Z,62.54
2023-05-10T12:34:52.125Z,62.66
2023-05-10T12:35:52.126Z,62.29
2023-05-10T12:36:52.115Z,62.43
2023-05-10T12:37:52.187Z,61.82
2023-05-10T12:38:52.084Z,61.41
2023-05-10T12:39:52.114Z,60.68
2023-05-10T12:40:52.156Z,60.65
2023-05-10T12:41:52.114Z,60.68
2023-05-10T12:42:52.121Z,60.78
2023-05-10T12:43:52.104Z,61.29
2023-05-10T12:44:52.043Z,60.58
2023-05-10T12:45:52.055Z,60.65
2023-05-10T12:46:51.994Z,60.75
2023-05-10T12:47:52.044Z,60.63
2023-05-10T12:49:00.225Z,60.75
2023-05-10T12:49:52.075Z,60.85
2023-05-10T12:50:51.968Z,60.63
2023-05-10T12:51:51.965Z,60.52